createdAt,value
2022-12-03T00:01:16.079Z,7.30
2022-12-03T00:03:43.539Z,7.40
2022-12-03T00:06:10.456Z,7.40
2022-12-03T00:08:37.326Z,7.50
2022-12-03T00:11:04.597Z,7.50
2022-12-03T00:13:31.807Z,7.40
2022-12-03T00:15:59.118Z,7.50
2022-12-03T00:18:26.319Z,7.40
2022-12-03T00:20:53.263Z,7.40
2022-12-03T00:23:20.238Z,7.50
2022-12-03T00:25:47.847Z,7.40
2022-12-03T00:28:14.831Z,7.30
2022-12-03T00:30:42.453Z,7.50
2022-12-03T00:33:09.930Z,7.30
2022-12-03T00:35:37.424Z,7.20
2022-12-03T00:38:04.515Z,7.20
2022-12-03T00:40:31.416Z,7.30
2022-12-03T00:42:59.289Z,7.20
2022-12-03T00:45:30.077Z,7.20
2022-12-03T00:47:57.435Z,7.20
2022-12-03T00:50:24.641Z,7.20
2022-12-03T00:52:51.868Z,7.30
2022-12-03T00:55:19.046Z,7.30
2022-12-03T00:57:45.899Z,7.20
2022-12-03T01:00:13.489Z,7.30
2022-12-03T01:02:40.327Z,7.30
2022-12-03T01:05:07.689Z,7.30
2022-12-03T01:07:34.872Z,7.20
2022-12-03T01:10:04.106Z,7.20
2022-12-03T01:12:30.868Z,7.20
2022-12-03T01:14:57.644Z,7.20
2022-12-03T01:17:24.851Z,7.20
2022-12-03T01:19:52.733Z,7.20
2022-12-03T01:22:19.952Z,7.20
2022-12-03T01:24:47.115Z,7.40
2022-12-03T01:27:14.383Z,7.30
2022-12-03T01:29:41.255Z,7.40
2022-12-03T01:32:18.201Z,7.30
2022-12-03T01:34:47.611Z,7.20
2022-12-03T01:37:15.069Z,7.20
2022-12-03T01:39:42.931Z,7.20
2022-12-03T01:42:15.381Z,7.20
2022-12-03T01:44:43.233Z,7.30
2022-12-03T01:47:18.666Z,7.20
2022-12-03T01:49:53.925Z,7.30
2022-12-03T01:52:24.580Z,7.30
2022-12-03T01:54:54.896Z,7.30
2022-12-03T01:57:43.587Z,7.20
2022-12-03T02:00:15.608Z,7.10
2022-12-03T02:02:42.461Z,7.20
2022-12-03T02:05:17.318Z,7.20
2022-12-03T02:07:44.648Z,7.30
2022-12-03T02:10:14.315Z,7.40
2022-12-03T02:12:47.534Z,7.40
2022-12-03T02:15:14.595Z,7.50
2022-12-03T02:17:42.417Z,7.50
2022-12-03T02:20:10.735Z,7.50
2022-12-03T02:22:54.296Z,7.40
2022-12-03T02:25:28.044Z,7.50
2022-12-03T02:27:56.102Z,7.40
2022-12-03T02:30:24.979Z,7.50
2022-12-03T02:32:53.228Z,7.40
2022-12-03T02:35:25.844Z,7.40
2022-12-03T02:38:07.616Z,7.50
2022-12-03T02:40:34.605Z,7.30
2022-12-03T02:43:03.427Z,7.30
2022-12-03T02:45:34.702Z,7.50
2022-12-03T02:48:06.724Z,7.40
2022-12-03T02:50:40.664Z,7.30
2022-12-03T02:53:13.246Z,7.20
2022-12-03T02:55:41.456Z,7.20
2022-12-03T02:58:09.369Z,7.10
2022-12-03T03:00:37.228Z,7.10
2022-12-03T03:03:06.388Z,7.10
2022-12-03T03:05:34.909Z,7.10
2022-12-03T03:08:02.815Z,7.10
2022-12-03T03:10:40.600Z,7.10
2022-12-03T03:13:11.536Z,8.50
2022-12-03T03:15:40.566Z,7.10
2022-12-03T03:18:08.338Z,7.80
2022-12-03T03:20:36.122Z,7.30
2022-12-03T03:23:23.423Z,7.10
2022-12-03T03:26:05.600Z,7.20
2022-12-03T03:28:34.775Z,7.20
2022-12-03T03:31:04.260Z,7.40
2022-12-03T03:33:31.821Z,7.20
2022-12-03T03:36:00.515Z,7.20
2022-12-03T03:38:28.433Z,7.20
2022-12-03T03:40:58.057Z,7.20
2022-12-03T03:43:25.558Z,7.20
2022-12-03T03:45:54.176Z,7.20
2022-12-03T03:48:22.671Z,7.30
2022-12-03T03:50:51.273Z,7.20
2022-12-03T03:53:19.231Z,7.10
2022-12-03T03:55:46.424Z,7.20
2022-12-03T03:58:13.649Z,7.10
2022-12-03T04:00:45.599Z,7.10
2022-12-03T04:03:13.525Z,7.10
2022-12-03T04:05:40.848Z,7.10
2022-12-03T04:08:07.787Z,8.50
2022-12-03T04:10:53.072Z,7.10
2022-12-03T04:13:19.890Z,7.20
2022-12-03T04:15:46.654Z,7.30
2022-12-03T04:18:32.451Z,7.30
2022-12-03T04:21:19.296Z,7.30
2022-12-03T04:23:46.101Z,7.30
2022-12-03T04:26:31.472Z,7.30
2022-12-03T04:28:58.376Z,7.20
2022-12-03T04:31:43.691Z,7.30
2022-12-03T04:34:29.930Z,7.20
2022-12-03T04:36:56.909Z,7.20
2022-12-03T04:39:24.139Z,7.10
2022-12-03T04:41:50.945Z,7.20
2022-12-03T04:44:36.449Z,7.20
2022-12-03T04:47:14.377Z,7.20
2022-12-03T04:49:54.261Z,7.20
2022-12-03T04:52:21.843Z,7.20
2022-12-03T04:54:48.837Z,7.20
2022-12-03T04:57:16.132Z,7.20
2022-12-03T04:59:43.409Z,7.00
2022-12-03T05:02:10.639Z,7.00
2022-12-03T05:04:37.508Z,7.00
2022-12-03T05:07:04.325Z,7.00
2022-12-03T05:09:31.066Z,7.20
2022-12-03T05:11:57.865Z,7.10
2022-12-03T05:14:24.774Z,7.10
2022-12-03T05:16:51.791Z,7.10
2022-12-03T05:19:18.665Z,7.10
2022-12-03T05:21:45.845Z,7.80
2022-12-03T05:24:12.647Z,7.10
2022-12-03T05:26:39.817Z,7.10
2022-12-03T05:29:06.672Z,7.20
2022-12-03T05:31:33.390Z,7.30
2022-12-03T05:34:00.533Z,7.20
2022-12-03T05:36:27.908Z,7.20
2022-12-03T05:38:55.217Z,7.30
2022-12-03T05:41:40.585Z,7.30
2022-12-03T05:44:07.404Z,7.30
2022-12-03T05:46:34.328Z,7.10
2022-12-03T05:49:01.269Z,7.20
2022-12-03T05:51:28.218Z,7.00
2022-12-03T05:53:55.437Z,6.90
2022-12-03T05:56:22.701Z,6.80
2022-12-03T05:58:49.949Z,6.80
2022-12-03T06:01:16.790Z,6.80
2022-12-03T06:03:43.872Z,6.80
2022-12-03T06:06:10.821Z,7.00
2022-12-03T06:08:37.603Z,6.90
2022-12-03T06:11:04.445Z,7.00
2022-12-03T06:13:31.248Z,6.90
2022-12-03T06:15:58.424Z,7.10
2022-12-03T06:18:25.332Z,7.10
2022-12-03T06:20:52.129Z,7.00
2022-12-03T06:23:18.882Z,7.00
2022-12-03T06:25:46.010Z,7.10
2022-12-03T06:28:15.870Z,7.10
2022-12-03T06:30:43.292Z,7.00
2022-12-03T06:33:10.202Z,7.20
2022-12-03T06:35:36.964Z,7.10
2022-12-03T06:38:04.268Z,7.10
2022-12-03T06:40:31.500Z,7.10
2022-12-03T06:42:58.683Z,7.00
2022-12-03T06:45:25.910Z,7.10
2022-12-03T06:47:52.706Z,7.20
2022-12-03T06:50:19.987Z,7.20
2022-12-03T06:52:46.752Z,7.30
2022-12-03T06:55:13.611Z,7.30
2022-12-03T06:57:40.491Z,7.30
2022-12-03T07:00:09.008Z,7.30
2022-12-03T07:02:36.091Z,7.30
2022-12-03T07:05:04.261Z,7.40
2022-12-03T07:07:31.483Z,7.40
2022-12-03T07:09:58.839Z,7.40
2022-12-03T07:12:25.592Z,7.40
2022-12-03T07:14:52.657Z,7.50
2022-12-03T07:17:19.589Z,7.40
2022-12-03T07:19:46.464Z,7.40
2022-12-03T07:22:13.542Z,7.50
2022-12-03T07:24:40.367Z,7.60
2022-12-03T07:27:07.839Z,7.60
2022-12-03T07:29:34.658Z,7.60
2022-12-03T07:32:01.481Z,7.60
2022-12-03T07:34:28.502Z,7.60
2022-12-03T07:36:55.753Z,8.10
2022-12-03T07:39:23.175Z,7.80
2022-12-03T07:41:50.439Z,7.80
2022-12-03T07:44:17.738Z,7.80
2022-12-03T07:46:44.642Z,7.80
2022-12-03T07:49:17.386Z,7.80
2022-12-03T07:51:53.572Z,7.90
2022-12-03T07:54:21.618Z,7.90
2022-12-03T07:56:48.543Z,7.90
2022-12-03T07:59:16.242Z,7.80
2022-12-03T08:01:43.133Z,7.90
2022-12-03T08:04:14.145Z,7.60
2022-12-03T08:06:41.493Z,7.90
2022-12-03T08:09:11.983Z,7.20
2022-12-03T08:11:42.201Z,8.10
2022-12-03T08:14:14.527Z,8.00
2022-12-03T08:16:43.373Z,8.10
2022-12-03T08:19:15.130Z,8.20
2022-12-03T08:21:42.782Z,8.10
2022-12-03T08:24:21.360Z,8.00
2022-12-03T08:26:49.096Z,8.00
2022-12-03T08:29:18.958Z,7.90
2022-12-03T08:31:57.266Z,8.00
2022-12-03T08:34:27.973Z,8.20
2022-12-03T08:37:16.404Z,8.10
2022-12-03T08:39:48.653Z,8.20
2022-12-03T08:42:44.754Z,8.10
2022-12-03T08:45:31.936Z,8.20
2022-12-03T08:48:02.415Z,9.30
2022-12-03T08:50:32.967Z,8.10
2022-12-03T08:53:14.005Z,8.20
2022-12-03T08:55:52.999Z,8.30
2022-12-03T08:58:42.413Z,8.30
2022-12-03T09:01:12.173Z,8.40
2022-12-03T09:03:48.971Z,8.50
2022-12-03T09:06:15.976Z,8.60
2022-12-03T09:08:42.906Z,8.60
2022-12-03T09:11:10.121Z,8.60
2022-12-03T09:13:36.865Z,8.70
2022-12-03T09:16:03.979Z,8.70
2022-12-03T09:18:30.953Z,8.90
2022-12-03T09:20:57.861Z,8.80
2022-12-03T09:23:24.721Z,8.90
2022-12-03T09:25:51.987Z,9.00
2022-12-03T09:28:18.929Z,8.90
2022-12-03T09:30:45.753Z,8.80
2022-12-03T09:33:12.707Z,8.80
2022-12-03T09:35:39.974Z,8.80
2022-12-03T09:38:06.860Z,8.70
2022-12-03T09:40:34.683Z,8.70
2022-12-03T09:43:01.729Z,8.70
2022-12-03T09:45:28.751Z,8.50
2022-12-03T09:47:55.797Z,8.40
2022-12-03T09:50:26.568Z,8.40
2022-12-03T09:52:55.141Z,8.30
2022-12-03T09:55:25.133Z,8.40
2022-12-03T09:57:56.950Z,8.40
2022-12-03T10:00:29.580Z,8.50
2022-12-03T10:02:59.332Z,8.50
2022-12-03T10:05:26.427Z,8.50
2022-12-03T10:07:53.566Z,8.50
2022-12-03T10:10:23.600Z,8.50
2022-12-03T10:12:51.487Z,8.50
2022-12-03T10:15:21.855Z,8.60
2022-12-03T10:17:51.191Z,8.50
2022-12-03T10:20:21.451Z,8.40
2022-12-03T10:22:48.894Z,8.40
2022-12-03T10:25:21.910Z,8.40
2022-12-03T10:28:05.414Z,9.10
2022-12-03T10:30:32.939Z,8.40
2022-12-03T10:33:03.005Z,8.40
2022-12-03T10:35:41.277Z,7.30
2022-12-03T10:38:28.463Z,8.40
2022-12-03T10:40:55.636Z,8.40
2022-12-03T10:43:26.971Z,8.40
2022-12-03T10:46:03.321Z,8.70
2022-12-03T10:48:30.923Z,8.00
2022-12-03T10:51:04.868Z,8.70
2022-12-03T10:53:34.712Z,7.60
2022-12-03T10:56:04.839Z,9.00
2022-12-03T10:58:36.094Z,9.00
2022-12-03T11:01:06.930Z,9.00
2022-12-03T11:03:35.984Z,9.00
2022-12-03T11:06:03.549Z,9.00
2022-12-03T11:08:35.782Z,9.00
2022-12-03T11:11:07.113Z,9.00
2022-12-03T11:13:34.537Z,8.90
2022-12-03T11:16:03.251Z,8.70
2022-12-03T11:18:39.523Z,6.50
2022-12-03T11:21:12.819Z,8.50
2022-12-03T11:23:46.096Z,8.50
2022-12-03T11:26:18.839Z,8.50
2022-12-03T11:28:46.221Z,8.50
2022-12-03T11:31:41.323Z,8.60
2022-12-03T11:34:23.051Z,8.60
2022-12-03T11:37:12.524Z,8.60
2022-12-03T11:39:45.557Z,8.60
2022-12-03T11:42:27.493Z,8.60
2022-12-03T11:45:06.274Z,8.60
2022-12-03T11:47:45.848Z,8.60
2022-12-03T11:50:37.646Z,8.60
2022-12-03T11:53:25.751Z,8.50
2022-12-03T11:56:11.034Z,8.70
2022-12-03T11:58:42.592Z,8.70
2022-12-03T12:01:09.828Z,8.70
2022-12-03T12:03:50.385Z,8.70
2022-12-03T12:06:20.529Z,8.50
2022-12-03T12:08:59.168Z,8.50
2022-12-03T12:11:29.425Z,8.40
2022-12-03T12:14:20.425Z,8.50
2022-12-03T12:16:52.560Z,8.50
2022-12-03T12:19:32.790Z,8.50
2022-12-03T12:22:27.764Z,8.30
2022-12-03T12:24:57.886Z,8.40
2022-12-03T12:27:47.204Z,8.30
2022-12-03T12:30:21.986Z,8.30
2022-12-03T12:33:16.635Z,8.30
2022-12-03T12:35:44.081Z,8.30
2022-12-03T12:38:16.655Z,8.30
2022-12-03T12:40:46.960Z,8.30
2022-12-03T12:43:24.379Z,8.30
2022-12-03T12:45:56.880Z,8.30
2022-12-03T12:48:40.046Z,8.60
2022-12-03T12:51:15.309Z,7.90
2022-12-03T12:53:45.470Z,8.40
2022-12-03T12:56:32.272Z,8.30
2022-12-03T12:59:09.559Z,6.80
2022-12-03T13:01:38.296Z,7.40
2022-12-03T13:04:20.559Z,6.50
2022-12-03T13:06:49.362Z,8.20
2022-12-03T13:09:27.315Z,8.30
2022-12-03T13:12:07.622Z,8.30
2022-12-03T13:14:37.122Z,7.60
2022-12-03T13:17:24.691Z,8.30
2022-12-03T13:20:01.967Z,6.80
2022-12-03T13:22:35.767Z,8.70
2022-12-03T13:25:50.610Z,7.70
2022-12-03T13:28:15.735Z,8.40
2022-12-03T13:30:43.165Z,7.80
2022-12-03T13:33:26.618Z,8.30
2022-12-03T13:35:55.626Z,7.10
2022-12-03T13:38:23.775Z,8.20
2022-12-03T13:41:01.898Z,8.40
2022-12-03T13:43:33.253Z,8.30
2022-12-03T13:46:00.725Z,8.40
2022-12-03T13:48:35.973Z,8.20
2022-12-03T13:51:26.829Z,7.80
2022-12-03T13:54:01.969Z,8.30
2022-12-03T13:56:33.367Z,8.30
2022-12-03T13:59:01.852Z,8.30
2022-12-03T14:01:30.340Z,8.60
2022-12-03T14:03:58.107Z,7.60
2022-12-03T14:06:25.783Z,7.00
2022-12-03T14:08:52.953Z,7.40
2022-12-03T14:11:38.541Z,8.40
2022-12-03T14:14:05.907Z,8.10
2022-12-03T14:16:33.331Z,7.50
2022-12-03T14:19:00.614Z,6.90
2022-12-03T14:21:30.632Z,8.50
2022-12-03T14:23:57.742Z,8.10
2022-12-03T14:26:25.459Z,8.50
2022-12-03T14:28:52.638Z,8.50
2022-12-03T14:31:22.477Z,7.20
2022-12-03T14:33:52.324Z,9.80
2022-12-03T14:36:20.077Z,8.40
2022-12-03T14:38:47.014Z,7.70
2022-12-03T14:41:34.497Z,8.50
2022-12-03T14:44:04.094Z,7.30
2022-12-03T14:46:31.366Z,9.40
2022-12-03T14:48:58.623Z,8.20
2022-12-03T14:51:25.882Z,7.00
2022-12-03T14:53:52.911Z,8.30
2022-12-03T14:56:20.231Z,8.30
2022-12-03T14:58:47.505Z,8.30
2022-12-03T15:01:15.402Z,6.70
2022-12-03T15:03:42.676Z,9.60
2022-12-03T15:06:09.951Z,7.70
2022-12-03T15:08:37.357Z,8.30
2022-12-03T15:11:04.504Z,8.20
2022-12-03T15:13:32.152Z,8.30
2022-12-03T15:16:00.313Z,7.10
2022-12-03T15:18:29.344Z,6.90
2022-12-03T15:20:56.962Z,8.40
2022-12-03T15:23:23.998Z,9.80
2022-12-03T15:25:51.567Z,8.40
2022-12-03T15:28:18.867Z,8.40
2022-12-03T15:30:46.235Z,8.40
2022-12-03T15:33:14.159Z,8.40
2022-12-03T15:35:42.957Z,8.30
2022-12-03T15:38:10.812Z,8.20
2022-12-03T15:40:38.671Z,7.70
2022-12-03T15:43:06.759Z,8.30
2022-12-03T15:45:42.112Z,8.30
2022-12-03T15:48:08.996Z,7.40
2022-12-03T15:50:40.154Z,8.30
2022-12-03T15:53:07.806Z,8.30
2022-12-03T15:55:34.710Z,8.30
2022-12-03T15:58:01.847Z,8.20
2022-12-03T16:00:29.542Z,9.80
2022-12-03T16:02:57.114Z,8.30
2022-12-03T16:05:26.761Z,8.10
2022-12-03T16:07:54.002Z,8.30
2022-12-03T16:10:21.643Z,8.30
2022-12-03T16:12:49.088Z,8.40
2022-12-03T16:15:16.260Z,8.50
2022-12-03T16:17:43.540Z,8.50
2022-12-03T16:20:11.817Z,8.50
2022-12-03T16:22:39.239Z,8.50
2022-12-03T16:25:07.202Z,9.90
2022-12-03T16:27:34.206Z,8.50
2022-12-03T16:30:01.848Z,8.40
2022-12-03T16:32:28.714Z,8.40
2022-12-03T16:34:56.218Z,8.40
2022-12-03T16:37:23.768Z,6.30
2022-12-03T16:39:53.636Z,8.30
2022-12-03T16:42:24.369Z,7.80
2022-12-03T16:45:03.913Z,7.40
2022-12-03T16:47:34.373Z,8.30
2022-12-03T16:50:03.402Z,9.40
2022-12-03T16:52:31.204Z,8.30
2022-12-03T16:54:58.638Z,8.30
2022-12-03T16:57:31.763Z,10.20
2022-12-03T17:00:00.854Z,8.10
2022-12-03T17:02:28.293Z,9.90
2022-12-03T17:04:55.841Z,8.40
2022-12-03T17:07:47.368Z,6.70
2022-12-03T17:10:15.420Z,7.30
2022-12-03T17:13:08.395Z,6.90
2022-12-03T17:15:30.698Z,9.10
2022-12-03T17:17:58.077Z,8.20
2022-12-03T17:20:25.298Z,7.40
2022-12-03T17:22:52.571Z,7.50
2022-12-03T17:25:19.893Z,8.30
2022-12-03T17:27:46.682Z,8.30
2022-12-03T17:30:14.190Z,8.30
2022-12-03T17:32:41.923Z,8.40
2022-12-03T17:35:09.964Z,8.30
2022-12-03T17:37:37.535Z,7.00
2022-12-03T17:40:06.624Z,8.30
2022-12-03T17:42:33.424Z,8.20
2022-12-03T17:45:00.321Z,8.30
2022-12-03T17:47:27.527Z,8.30
2022-12-03T17:49:54.438Z,8.40
2022-12-03T17:52:23.220Z,8.30
2022-12-03T17:55:10.109Z,8.30
2022-12-03T17:57:36.902Z,8.40
2022-12-03T18:00:04.456Z,8.30
2022-12-03T18:04:59.482Z,8.20
2022-12-03T18:07:26.406Z,6.80
2022-12-03T18:09:53.871Z,8.20
2022-12-03T18:12:20.993Z,8.20
2022-12-03T18:14:47.800Z,8.30
2022-12-03T18:17:14.688Z,8.40
2022-12-03T18:19:41.942Z,8.30
2022-12-03T18:22:09.516Z,8.40
2022-12-03T18:24:36.577Z,8.30
2022-12-03T18:27:03.542Z,8.40
2022-12-03T18:29:30.360Z,8.40
2022-12-03T18:31:57.734Z,8.40
2022-12-03T18:34:24.780Z,8.30
2022-12-03T18:36:51.702Z,8.40
2022-12-03T18:39:26.413Z,8.40
2022-12-03T18:41:54.036Z,8.30
2022-12-03T18:44:21.628Z,8.40
2022-12-03T18:46:55.945Z,8.40
2022-12-03T18:49:23.064Z,8.30
2022-12-03T18:51:54.519Z,8.20
2022-12-03T18:54:25.644Z,8.30
2022-12-03T18:56:52.507Z,8.20
2022-12-03T18:59:19.743Z,8.10
2022-12-03T19:01:47.111Z,8.30
2022-12-03T19:04:14.419Z,8.10
2022-12-03T19:06:41.255Z,8.20
2022-12-03T19:09:08.135Z,8.20
2022-12-03T19:11:35.033Z,8.20
2022-12-03T19:14:05.541Z,8.10
2022-12-03T19:16:32.519Z,8.00
2022-12-03T19:18:59.447Z,8.10
2022-12-03T19:21:29.491Z,8.10
2022-12-03T19:24:23.715Z,8.10
2022-12-03T19:27:01.922Z,8.10
2022-12-03T19:29:28.897Z,8.10
2022-12-03T19:31:55.816Z,8.00
2022-12-03T19:34:22.740Z,8.10
2022-12-03T19:36:49.509Z,8.00
2022-12-03T19:39:16.368Z,8.00
2022-12-03T19:41:44.708Z,7.90
2022-12-03T19:44:14.521Z,7.90
2022-12-03T19:46:42.468Z,7.80
2022-12-03T19:49:10.173Z,7.70
2022-12-03T19:51:37.401Z,7.70
2022-12-03T19:54:06.538Z,7.70
2022-12-03T19:56:33.825Z,7.70
2022-12-03T19:59:01.446Z,7.70
2022-12-03T20:01:32.199Z,7.70
2022-12-03T20:04:00.763Z,7.70
2022-12-03T20:06:30.596Z,7.70
2022-12-03T20:08:59.512Z,7.70
2022-12-03T20:11:32.189Z,7.70
2022-12-03T20:14:02.134Z,7.70
2022-12-03T20:16:30.204Z,7.70
2022-12-03T20:19:01.704Z,7.60
2022-12-03T20:21:31.087Z,7.50
2022-12-03T20:23:58.556Z,7.90
2022-12-03T20:26:26.585Z,7.60
2022-12-03T20:28:55.217Z,7.50
2022-12-03T20:31:24.389Z,7.50
2022-12-03T20:33:54.710Z,7.50
2022-12-03T20:36:22.902Z,7.50
2022-12-03T20:38:57.729Z,7.50
2022-12-03T20:41:25.365Z,7.50
2022-12-03T20:43:53.479Z,7.60
2022-12-03T20:46:21.747Z,7.70
2022-12-03T20:48:49.176Z,7.70
2022-12-03T20:51:19.466Z,7.60
2022-12-03T20:53:47.315Z,7.70
2022-12-03T20:56:23.781Z,7.60
2022-12-03T20:58:51.136Z,7.50
2022-12-03T21:01:21.158Z,7.60
2022-12-03T21:03:49.604Z,7.60
2022-12-03T21:06:17.349Z,7.60
2022-12-03T21:08:44.882Z,7.50
2022-12-03T21:11:18.227Z,7.40
2022-12-03T21:13:47.972Z,7.40
2022-12-03T21:16:17.627Z,7.40
2022-12-03T21:18:45.611Z,7.40
2022-12-03T21:21:14.787Z,7.40
2022-12-03T21:23:42.694Z,7.50
2022-12-03T21:26:15.954Z,7.40
2022-12-03T21:28:44.352Z,7.40
2022-12-03T21:31:17.024Z,7.40
2022-12-03T21:33:44.590Z,7.40
2022-12-03T21:36:14.191Z,7.40
2022-12-03T21:38:41.942Z,7.30
2022-12-03T21:41:09.014Z,7.40
2022-12-03T21:43:36.292Z,7.30
2022-12-03T21:47:11.821Z,7.40
2022-12-03T21:49:00.326Z,7.50
2022-12-03T21:51:27.553Z,7.50
2022-12-03T21:53:54.559Z,7.40
2022-12-03T21:56:21.874Z,7.40
2022-12-03T21:58:51.741Z,7.30
2022-12-03T22:01:21.537Z,7.40
2022-12-03T22:03:48.913Z,7.30
2022-12-03T22:06:19.435Z,7.40
2022-12-03T22:08:46.926Z,7.30
2022-12-03T22:11:20.018Z,7.30
2022-12-03T22:13:47.169Z,7.30
2022-12-03T22:16:17.091Z,7.40
2022-12-03T22:18:44.049Z,7.40
2022-12-03T22:21:14.410Z,7.30
2022-12-03T22:23:41.394Z,7.60
2022-12-03T22:26:13.660Z,7.30
2022-12-03T22:28:46.938Z,7.40
2022-12-03T22:31:14.593Z,7.40
2022-12-03T22:33:42.152Z,7.40
2022-12-03T22:36:19.637Z,7.40
2022-12-03T22:38:48.007Z,7.40
2022-12-03T22:41:15.983Z,7.30
2022-12-03T22:43:43.016Z,7.30
2022-12-03T22:46:12.763Z,7.30
2022-12-03T22:48:41.467Z,7.20
2022-12-03T22:51:17.565Z,7.20
2022-12-03T22:53:44.616Z,7.20
2022-12-03T22:56:11.834Z,7.20
2022-12-03T22:58:39.840Z,7.20
2022-12-03T23:01:07.600Z,7.20
2022-12-03T23:03:34.604Z,7.30
2022-12-03T23:06:01.536Z,7.20
2022-12-03T23:08:28.358Z,7.10
2022-12-03T23:10:55.133Z,7.10
2022-12-03T23:13:26.479Z,7.10
2022-12-03T23:15:53.408Z,7.10
2022-12-03T23:18:20.982Z,7.20
2022-12-03T23:20:50.960Z,7.10
2022-12-03T23:23:19.186Z,7.10
2022-12-03T23:26:10.471Z,7.10
2022-12-03T23:28:39.209Z,7.30
2022-12-03T23:31:14.027Z,7.20
2022-12-03T23:33:40.928Z,7.20
2022-12-03T23:36:08.183Z,7.10
2022-12-03T23:38:36.894Z,7.00
2022-12-03T23:41:05.446Z,6.90
2022-12-03T23:43:32.330Z,7.00
2022-12-03T23:46:14.185Z,6.90
2022-12-03T23:48:42.648Z,6.80
2022-12-03T23:51:14.990Z,6.80
2022-12-03T23:53:42.417Z,6.80
2022-12-03T23:56:12.112Z,7.00
2022-12-03T23:58:39.587Z,7.00
